sensor_id;sensor_type;location;lat;lon;timestamp;pressure;altitude;pressure_sealevel;temperature
20848;BMP180;10584;50.854;12.902;2023-09-07T00:03:39;98818.00;;;12.70
20848;BMP180;10584;50.854;12.902;2023-09-07T00:09:03;98816.00;;;12.60
20848;BMP180;10584;50.854;12.902;2023-09-07T00:14:27;98816.00;;;12.50
20848;BMP180;10584;50.854;12.902;2023-09-07T00:19:49;98817.00;;;12.50
20848;BMP180;10584;50.854;12.902;2023-09-07T00:25:12;98826.00;;;12.40
20848;BMP180;10584;50.854;12.902;2023-09-07T00:30:35;98825.00;;;12.30
20848;BMP180;10584;50.854;12.902;2023-09-07T00:35:56;98825.00;;;12.30
20848;BMP180;10584;50.854;12.902;2023-09-07T00:41:18;98814.00;;;12.20
20848;BMP180;10584;50.854;12.902;2023-09-07T00:46:39;98808.00;;;12.20
20848;BMP180;10584;50.854;12.902;2023-09-07T00:52:01;98806.00;;;12.20
20848;BMP180;10584;50.854;12.902;2023-09-07T00:57:23;98807.00;;;12.10
20848;BMP180;10584;50.854;12.902;2023-09-07T01:02:47;98808.00;;;12.10
20848;BMP180;10584;50.854;12.902;2023-09-07T01:08:15;98810.00;;;12.00
20848;BMP180;10584;50.854;12.902;2023-09-07T01:13:39;98798.00;;;11.90
20848;BMP180;10584;50.854;12.902;2023-09-07T01:19:01;98800.00;;;11.90
20848;BMP180;10584;50.854;12.902;2023-09-07T01:24:24;98803.00;;;11.80
20848;BMP180;10584;50.854;12.902;2023-09-07T01:29:46;98801.00;;;11.80
20848;BMP180;10584;50.854;12.902;2023-09-07T01:35:10;98795.00;;;11.70
20848;BMP180;10584;50.854;12.902;2023-09-07T01:40:32;98803.00;;;11.70
20848;BMP180;10584;50.854;12.902;2023-09-07T01:45:54;98804.00;;;11.60
20848;BMP180;10584;50.854;12.902;2023-09-07T01:51:15;98800.00;;;11.60
20848;BMP180;10584;50.854;12.902;2023-09-07T01:56:37;98805.00;;;11.50
20848;BMP180;10584;50.854;12.902;2023-09-07T02:02:00;98783.00;;;11.40
20848;BMP180;10584;50.854;12.902;2023-09-07T02:07:22;98787.00;;;11.40
20848;BMP180;10584;50.854;12.902;2023-09-07T02:12:46;98794.00;;;11.40
20848;BMP180;10584;50.854;12.902;2023-09-07T02:18:08;98796.00;;;11.40
20848;BMP180;10584;50.854;12.902;2023-09-07T02:23:30;98793.00;;;11.30
20848;BMP180;10584;50.854;12.902;2023-09-07T02:28:52;98793.00;;;11.30
20848;BMP180;10584;50.854;12.902;2023-09-07T02:34:13;98797.00;;;11.30
20848;BMP180;10584;50.854;12.902;2023-09-07T02:39:35;98794.00;;;11.20
20848;BMP180;10584;50.854;12.902;2023-09-07T02:44:57;98792.00;;;11.20
20848;BMP180;10584;50.854;12.902;2023-09-07T02:50:19;98798.00;;;11.10
20848;BMP180;10584;50.854;12.902;2023-09-07T02:55:40;98803.00;;;11.10
20848;BMP180;10584;50.854;12.902;2023-09-07T03:01:06;98792.00;;;11.00
20848;BMP180;10584;50.854;12.902;2023-09-07T03:06:30;98784.00;;;11.00
20848;BMP180;10584;50.854;12.902;2023-09-07T03:11:52;98792.00;;;11.00
20848;BMP180;10584;50.854;12.902;2023-09-07T03:17:14;98783.00;;;10.90
20848;BMP180;10584;50.854;12.902;2023-09-07T03:22:38;98785.00;;;10.90
20848;BMP180;10584;50.854;12.902;2023-09-07T03:27:59;98784.00;;;10.80
20848;BMP180;10584;50.854;12.902;2023-09-07T03:33:22;98787.00;;;10.80
20848;BMP180;10584;50.854;12.902;2023-09-07T03:38:44;98777.00;;;10.70
20848;BMP180;10584;50.854;12.902;2023-09-07T03:44:07;98787.00;;;10.70
20848;BMP180;10584;50.854;12.902;2023-09-07T03:49:30;98798.00;;;10.70
20848;BMP180;10584;50.854;12.902;2023-09-07T03:54:54;98799.00;;;10.60
20848;BMP180;10584;50.854;12.902;2023-09-07T04:00:17;98798.00;;;10.60
20848;BMP180;10584;50.854;12.902;2023-09-07T04:05:42;98796.00;;;10.60
20848;BMP180;10584;50.854;12.902;2023-09-07T04:11:06;98794.00;;;10.50
20848;BMP180;10584;50.854;12.902;2023-09-07T04:16:28;98796.00;;;10.50
20848;BMP180;10584;50.854;12.902;2023-09-07T04:21:50;98791.00;;;10.50
20848;BMP180;10584;50.854;12.902;2023-09-07T04:27:13;98800.00;;;10.60
20848;BMP180;10584;50.854;12.902;2023-09-07T04:32:34;98805.00;;;10.90
20848;BMP180;10584;50.854;12.902;2023-09-07T04:37:57;98810.00;;;11.10
20848;BMP180;10584;50.854;12.902;2023-09-07T04:43:19;98810.00;;;11.20
20848;BMP180;10584;50.854;12.902;2023-09-07T04:48:41;98807.00;;;11.30
20848;BMP180;10584;50.854;12.902;2023-09-07T04:54:03;98799.00;;;11.40
20848;BMP180;10584;50.854;12.902;2023-09-07T04:59:25;98807.00;;;11.40
20848;BMP180;10584;50.854;12.902;2023-09-07T05:04:47;98809.00;;;11.40
20848;BMP180;10584;50.854;12.902;2023-09-07T05:10:08;98813.00;;;11.40
20848;BMP180;10584;50.854;12.902;2023-09-07T05:15:34;98816.00;;;11.40
20848;BMP180;10584;50.854;12.902;2023-09-07T05:20:56;98815.00;;;11.40
20848;BMP180;10584;50.854;12.902;2023-09-07T05:26:22;98816.00;;;11.50
20848;BMP180;10584;50.854;12.902;2023-09-07T05:31:46;98824.00;;;11.50
20848;BMP180;10584;50.854;12.902;2023-09-07T05:37:08;98826.00;;;11.80
20848;BMP180;10584;50.854;12.902;2023-09-07T05:42:30;98833.00;;;12.10
20848;BMP180;10584;50.854;12.902;2023-09-07T05:47:52;98831.00;;;12.40
20848;BMP180;10584;50.854;12.902;2023-09-07T05:53:14;98838.00;;;12.80
20848;BMP180;10584;50.854;12.902;2023-09-07T05:58:36;98839.00;;;13.10
20848;BMP180;10584;50.854;12.902;2023-09-07T06:03:59;98834.00;;;13.50
20848;BMP180;10584;50.854;12.902;2023-09-07T06:09:21;98835.00;;;13.80
20848;BMP180;10584;50.854;12.902;2023-09-07T06:14:43;98836.00;;;14.20
20848;BMP180;10584;50.854;12.902;2023-09-07T06:20:07;98844.00;;;14.60
20848;BMP180;10584;50.854;12.902;2023-09-07T06:25:30;98842.00;;;15.10
20848;BMP180;10584;50.854;12.902;2023-09-07T06:30:55;98838.00;;;15.50
20848;BMP180;10584;50.854;12.902;2023-09-07T06:36:16;98850.00;;;15.90
20848;BMP180;10584;50.854;12.902;2023-09-07T06:41:48;98852.00;;;16.20
20848;BMP180;10584;50.854;12.902;2023-09-07T06:47:12;98851.00;;;16.70
20848;BMP180;10584;50.854;12.902;2023-09-07T06:52:34;98856.00;;;17.00
20848;BMP180;10584;50.854;12.902;2023-09-07T06:57:56;98847.00;;;17.50
20848;BMP180;10584;50.854;12.902;2023-09-07T07:03:18;98851.00;;;17.90
20848;BMP180;10584;50.854;12.902;2023-09-07T07:08:40;98850.00;;;18.30
20848;BMP180;10584;50.854;12.902;2023-09-07T07:14:02;98847.00;;;18.70
20848;BMP180;10584;50.854;12.902;2023-09-07T07:19:24;98851.00;;;19.20
20848;BMP180;10584;50.854;12.902;2023-09-07T07:24:46;98855.00;;;19.50
20848;BMP180;10584;50.854;12.902;2023-09-07T07:30:09;98849.00;;;19.90
20848;BMP180;10584;50.854;12.902;2023-09-07T07:35:34;98847.00;;;20.30
20848;BMP180;10584;50.854;12.902;2023-09-07T07:40:57;98848.00;;;20.70
20848;BMP180;10584;50.854;12.902;2023-09-07T07:46:19;98857.00;;;21.00
20848;BMP180;10584;50.854;12.902;2023-09-07T07:51:42;98854.00;;;21.40
20848;BMP180;10584;50.854;12.902;2023-09-07T07:57:04;98857.00;;;21.70
20848;BMP180;10584;50.854;12.902;2023-09-07T08:02:26;98860.00;;;22.10
20848;BMP180;10584;50.854;12.902;2023-09-07T08:07:48;98851.00;;;22.40
20848;BMP180;10584;50.854;12.902;2023-09-07T08:13:11;98851.00;;;22.80
20848;BMP180;10584;50.854;12.902;2023-09-07T08:18:34;98851.00;;;23.10
20848;BMP180;10584;50.854;12.902;2023-09-07T08:23:57;98849.00;;;23.40
20848;BMP180;10584;50.854;12.902;2023-09-07T08:29:19;98843.00;;;23.60
20848;BMP180;10584;50.854;12.902;2023-09-07T08:34:42;98850.00;;;23.90
20848;BMP180;10584;50.854;12.902;2023-09-07T08:40:04;98857.00;;;24.20
20848;BMP180;10584;50.854;12.902;2023-09-07T08:45:30;98853.00;;;24.60
20848;BMP180;10584;50.854;12.902;2023-09-07T08:50:53;98848.00;;;24.80
20848;BMP180;10584;50.854;12.902;2023-09-07T08:56:17;98860.00;;;25.00
20848;BMP180;10584;50.854;12.902;2023-09-07T09:01:40;98862.00;;;25.20
20848;BMP180;10584;50.854;12.902;2023-09-07T09:07:01;98853.00;;;25.20
20848;BMP180;10584;50.854;12.902;2023-09-07T09:12:25;98858.00;;;25.50
20848;BMP180;10584;50.854;12.902;2023-09-07T09:17:47;98848.00;;;25.70
20848;BMP180;10584;50.854;12.902;2023-09-07T09:23:09;98851.00;;;25.90
20848;BMP180;10584;50.854;12.902;2023-09-07T09:28:34;98854.00;;;26.00
20848;BMP180;10584;50.854;12.902;2023-09-07T09:33:57;98854.00;;;26.20
20848;BMP180;10584;50.854;12.902;2023-09-07T09:39:23;98856.00;;;26.40
20848;BMP180;10584;50.854;12.902;2023-09-07T09:44:45;98841.00;;;26.70
20848;BMP180;10584;50.854;12.902;2023-09-07T09:50:11;98845.00;;;26.80
20848;BMP180;10584;50.854;12.902;2023-09-07T09:55:33;98835.00;;;26.80
20848;BMP180;10584;50.854;12.902;2023-09-07T10:00:57;98837.00;;;27.00
20848;BMP180;10584;50.854;12.902;2023-09-07T10:06:24;98836.00;;;27.20
20848;BMP180;10584;50.854;12.902;2023-09-07T10:11:52;98835.00;;;27.40
20848;BMP180;10584;50.854;12.902;2023-09-07T10:17:22;98832.00;;;27.50
20848;BMP180;10584;50.854;12.902;2023-09-07T10:22:44;98831.00;;;27.60
20848;BMP180;10584;50.854;12.902;2023-09-07T10:28:16;98830.00;;;27.70
20848;BMP180;10584;50.854;12.902;2023-09-07T10:33:40;98827.00;;;28.00
20848;BMP180;10584;50.854;12.902;2023-09-07T10:39:02;98820.00;;;28.00
20848;BMP180;10584;50.854;12.902;2023-09-07T10:44:28;98817.00;;;28.30
20848;BMP180;10584;50.854;12.902;2023-09-07T10:49:50;98824.00;;;28.30
20848;BMP180;10584;50.854;12.902;2023-09-07T10:55:12;98826.00;;;28.50
20848;BMP180;10584;50.854;12.902;2023-09-07T11:00:34;98820.00;;;28.50
20848;BMP180;10584;50.854;12.902;2023-09-07T11:06:09;98818.00;;;28.50
20848;BMP180;10584;50.854;12.902;2023-09-07T11:11:32;98824.00;;;28.60
20848;BMP180;10584;50.854;12.902;2023-09-07T11:16:57;98826.00;;;28.90
20848;BMP180;10584;50.854;12.902;2023-09-07T11:22:19;98815.00;;;28.80
20848;BMP180;10584;50.854;12.902;2023-09-07T11:27:41;98816.00;;;28.90
20848;BMP180;10584;50.854;12.902;2023-09-07T11:33:06;98815.00;;;28.90
20848;BMP180;10584;50.854;12.902;2023-09-07T11:38:36;98813.00;;;28.90
20848;BMP180;10584;50.854;12.902;2023-09-07T11:43:59;98809.00;;;28.90
20848;BMP180;10584;50.854;12.902;2023-09-07T11:49:21;98813.00;;;29.00
20848;BMP180;10584;50.854;12.902;2023-09-07T11:54:43;98811.00;;;29.10
20848;BMP180;10584;50.854;12.902;2023-09-07T12:00:05;98817.00;;;29.30
20848;BMP180;10584;50.854;12.902;2023-09-07T12:05:31;98815.00;;;29.20
20848;BMP180;10584;50.854;12.902;2023-09-07T12:10:54;98805.00;;;29.10
20848;BMP180;10584;50.854;12.902;2023-09-07T12:16:15;98803.00;;;29.30
20848;BMP180;10584;50.854;12.902;2023-09-07T12:21:37;98803.00;;;29.40
20848;BMP180;10584;50.854;12.902;2023-09-07T12:27:01;98799.00;;;29.50
20848;BMP180;10584;50.854;12.902;2023-09-07T12:32:23;98797.00;;;29.60
20848;BMP180;10584;50.854;12.902;2023-09-07T12:37:45;98805.00;;;29.60
20848;BMP180;10584;50.854;12.902;2023-09-07T12:43:06;98796.00;;;29.50
20848;BMP180;10584;50.854;12.902;2023-09-07T12:48:29;98787.00;;;29.60
20848;BMP180;10584;50.854;12.902;2023-09-07T12:53:50;98794.00;;;29.60
20848;BMP180;10584;50.854;12.902;2023-09-07T12:59:12;98792.00;;;29.30
20848;BMP180;10584;50.854;12.902;2023-09-07T13:04:34;98786.00;;;29.30
20848;BMP180;10584;50.854;12.902;2023-09-07T13:09:56;98773.00;;;29.50
20848;BMP180;10584;50.854;12.902;2023-09-07T13:15:17;98781.00;;;29.40
20848;BMP180;10584;50.854;12.902;2023-09-07T13:20:39;98784.00;;;29.60
20848;BMP180;10584;50.854;12.902;2023-09-07T13:26:01;98776.00;;;29.70
20848;BMP180;10584;50.854;12.902;2023-09-07T13:31:23;98764.00;;;29.80
20848;BMP180;10584;50.854;12.902;2023-09-07T13:36:44;98763.00;;;29.90
20848;BMP180;10584;50.854;12.902;2023-09-07T13:42:07;98757.00;;;29.80
20848;BMP180;10584;50.854;12.902;2023-09-07T13:47:28;98764.00;;;29.50
20848;BMP180;10584;50.854;12.902;2023-09-07T13:52:50;98765.00;;;29.60
20848;BMP180;10584;50.854;12.902;2023-09-07T13:58:12;98758.00;;;29.70
20848;BMP180;10584;50.854;12.902;2023-09-07T14:03:33;98760.00;;;29.90
20848;BMP180;10584;50.854;12.902;2023-09-07T14:08:55;98756.00;;;29.90
20848;BMP180;10584;50.854;12.902;2023-09-07T14:14:17;98759.00;;;29.80
20848;BMP180;10584;50.854;12.902;2023-09-07T14:19:39;98762.00;;;29.80
20848;BMP180;10584;50.854;12.902;2023-09-07T14:25:00;98757.00;;;29.90
20848;BMP180;10584;50.854;12.902;2023-09-07T14:30:22;98752.00;;;29.70
20848;BMP180;10584;50.854;12.902;2023-09-07T14:35:44;98753.00;;;29.70
20848;BMP180;10584;50.854;12.902;2023-09-07T14:41:07;98753.00;;;29.80
20848;BMP180;10584;50.854;12.902;2023-09-07T14:46:29;98750.00;;;29.80
20848;BMP180;10584;50.854;12.902;2023-09-07T14:51:51;98748.00;;;29.70
20848;BMP180;10584;50.854;12.902;2023-09-07T14:57:13;98742.00;;;29.60
20848;BMP180;10584;50.854;12.902;2023-09-07T15:02:39;98748.00;;;29.70
20848;BMP180;10584;50.854;12.902;2023-09-07T15:08:00;98749.00;;;29.70
20848;BMP180;10584;50.854;12.902;2023-09-07T15:13:24;98741.00;;;29.60
20848;BMP180;10584;50.854;12.902;2023-09-07T15:18:46;98739.00;;;29.60
20848;BMP180;10584;50.854;12.902;2023-09-07T15:24:08;98737.00;;;29.60
20848;BMP180;10584;50.854;12.902;2023-09-07T15:29:33;98734.00;;;29.70
20848;BMP180;10584;50.854;12.902;2023-09-07T15:34:54;98738.00;;;29.50
20848;BMP180;10584;50.854;12.902;2023-09-07T15:40:16;98742.00;;;29.30
20848;BMP180;10584;50.854;12.902;2023-09-07T15:45:38;98736.00;;;29.10
20848;BMP180;10584;50.854;12.902;2023-09-07T15:51:00;98736.00;;;29.10
20848;BMP180;10584;50.854;12.902;2023-09-07T15:56:21;98736.00;;;29.20
20848;BMP180;10584;50.854;12.902;2023-09-07T16:01:43;98745.00;;;28.80
20848;BMP180;10584;50.854;12.902;2023-09-07T16:07:07;98737.00;;;28.90
20848;BMP180;10584;50.854;12.902;2023-09-07T16:12:29;98741.00;;;28.90
20848;BMP180;10584;50.854;12.902;2023-09-07T16:17:51;98735.00;;;28.90
20848;BMP180;10584;50.854;12.902;2023-09-07T16:23:12;98732.00;;;28.70
20848;BMP180;10584;50.854;12.902;2023-09-07T16:28:34;98730.00;;;28.70
20848;BMP180;10584;50.854;12.902;2023-09-07T16:33:55;98726.00;;;28.40
20848;BMP180;10584;50.854;12.902;2023-09-07T16:39:17;98730.00;;;28.10
20848;BMP180;10584;50.854;12.902;2023-09-07T16:44:38;98728.00;;;27.90
20848;BMP180;10584;50.854;12.902;2023-09-07T16:50:00;98731.00;;;27.90
20848;BMP180;10584;50.854;12.902;2023-09-07T16:55:22;98733.00;;;27.70
20848;BMP180;10584;50.854;12.902;2023-09-07T17:00:43;98727.00;;;27.40
20848;BMP180;10584;50.854;12.902;2023-09-07T17:06:05;98732.00;;;27.30
20848;BMP180;10584;50.854;12.902;2023-09-07T17:11:27;98729.00;;;27.00
20848;BMP180;10584;50.854;12.902;2023-09-07T17:16:49;98734.00;;;26.70
20848;BMP180;10584;50.854;12.902;2023-09-07T17:22:10;98739.00;;;26.10
20848;BMP180;10584;50.854;12.902;2023-09-07T17:27:33;98729.00;;;25.80
20848;BMP180;10584;50.854;12.902;2023-09-07T17:32:54;98736.00;;;25.30
20848;BMP180;10584;50.854;12.902;2023-09-07T17:38:18;98734.00;;;24.90
20848;BMP180;10584;50.854;12.902;2023-09-07T17:43:40;98730.00;;;24.50
20848;BMP180;10584;50.854;12.902;2023-09-07T17:49:01;98727.00;;;24.10
20848;BMP180;10584;50.854;12.902;2023-09-07T17:54:23;98729.00;;;23.70
20848;BMP180;10584;50.854;12.902;2023-09-07T17:59:45;98724.00;;;23.30
20848;BMP180;10584;50.854;12.902;2023-09-07T18:05:07;98737.00;;;23.00
20848;BMP180;10584;50.854;12.902;2023-09-07T18:10:28;98733.00;;;22.60
20848;BMP180;10584;50.854;12.902;2023-09-07T18:15:52;98738.00;;;22.30
20848;BMP180;10584;50.854;12.902;2023-09-07T18:21:13;98751.00;;;21.90
20848;BMP180;10584;50.854;12.902;2023-09-07T18:26:35;98743.00;;;21.60
20848;BMP180;10584;50.854;12.902;2023-09-07T18:31:57;98746.00;;;21.30
20848;BMP180;10584;50.854;12.902;2023-09-07T18:37:18;98742.00;;;21.00
20848;BMP180;10584;50.854;12.902;2023-09-07T18:42:40;98743.00;;;20.70
20848;BMP180;10584;50.854;12.902;2023-09-07T18:48:02;98737.00;;;20.50
20848;BMP180;10584;50.854;12.902;2023-09-07T18:53:23;98734.00;;;20.20
20848;BMP180;10584;50.854;12.902;2023-09-07T18:58:45;98738.00;;;20.00
20848;BMP180;10584;50.854;12.902;2023-09-07T19:04:09;98736.00;;;19.80
20848;BMP180;10584;50.854;12.902;2023-09-07T19:09:30;98735.00;;;19.60
20848;BMP180;10584;50.854;12.902;2023-09-07T19:14:52;98744.00;;;19.30
20848;BMP180;10584;50.854;12.902;2023-09-07T19:20:17;98742.00;;;19.10
20848;BMP180;10584;50.854;12.902;2023-09-07T19:25:38;98738.00;;;18.90
20848;BMP180;10584;50.854;12.902;2023-09-07T19:30:59;98734.00;;;18.60
20848;BMP180;10584;50.854;12.902;2023-09-07T19:36:22;98743.00;;;18.40
20848;BMP180;10584;50.854;12.902;2023-09-07T19:41:43;98736.00;;;18.20
20848;BMP180;10584;50.854;12.902;2023-09-07T19:47:05;98728.00;;;18.10
20848;BMP180;10584;50.854;12.902;2023-09-07T19:52:27;98731.00;;;17.90
20848;BMP180;10584;50.854;12.902;2023-09-07T19:57:48;98735.00;;;17.70
20848;BMP180;10584;50.854;12.902;2023-09-07T20:03:12;98736.00;;;17.60
20848;BMP180;10584;50.854;12.902;2023-09-07T20:08:35;98739.00;;;17.50
20848;BMP180;10584;50.854;12.902;2023-09-07T20:13:56;98740.00;;;17.40
20848;BMP180;10584;50.854;12.902;2023-09-07T20:19:18;98743.00;;;17.30
20848;BMP180;10584;50.854;12.902;2023-09-07T20:24:40;98743.00;;;17.10
20848;BMP180;10584;50.854;12.902;2023-09-07T20:30:01;98741.00;;;17.00
20848;BMP180;10584;50.854;12.902;2023-09-07T20:35:28;98733.00;;;16.90
20848;BMP180;10584;50.854;12.902;2023-09-07T20:40:52;98728.00;;;16.70
20848;BMP180;10584;50.854;12.902;2023-09-07T20:46:14;98725.00;;;16.50
20848;BMP180;10584;50.854;12.902;2023-09-07T20:51:35;98718.00;;;16.40
20848;BMP180;10584;50.854;12.902;2023-09-07T20:56:58;98718.00;;;16.20
20848;BMP180;10584;50.854;12.902;2023-09-07T21:02:19;98713.00;;;16.10
20848;BMP180;10584;50.854;12.902;2023-09-07T21:07:41;98716.00;;;15.90
20848;BMP180;10584;50.854;12.902;2023-09-07T21:13:03;98712.00;;;15.80
20848;BMP180;10584;50.854;12.902;2023-09-07T21:18:24;98718.00;;;15.60
20848;BMP180;10584;50.854;12.902;2023-09-07T21:23:48;98717.00;;;15.50
20848;BMP180;10584;50.854;12.902;2023-09-07T21:29:10;98721.00;;;15.40
20848;BMP180;10584;50.854;12.902;2023-09-07T21:34:32;98720.00;;;15.20
20848;BMP180;10584;50.854;12.902;2023-09-07T21:39:53;98723.00;;;15.10
20848;BMP180;10584;50.854;12.902;2023-09-07T21:45:15;98715.00;;;14.90
20848;BMP180;10584;50.854;12.902;2023-09-07T21:50:36;98716.00;;;14.80
20848;BMP180;10584;50.854;12.902;2023-09-07T21:55:58;98713.00;;;14.70
20848;BMP180;10584;50.854;12.902;2023-09-07T22:01:20;98715.00;;;14.60
20848;BMP180;10584;50.854;12.902;2023-09-07T22:06:42;98706.00;;;14.50
20848;BMP180;10584;50.854;12.902;2023-09-07T22:12:03;98698.00;;;14.30
20848;BMP180;10584;50.854;12.902;2023-09-07T22:17:25;98692.00;;;14.20
20848;BMP180;10584;50.854;12.902;2023-09-07T22:22:47;98693.00;;;14.10
20848;BMP180;10584;50.854;12.902;2023-09-07T22:28:09;98698.00;;;14.00
20848;BMP180;10584;50.854;12.902;2023-09-07T22:33:30;98695.00;;;13.90
20848;BMP180;10584;50.854;12.902;2023-09-07T22:38:51;98686.00;;;13.80
20848;BMP180;10584;50.854;12.902;2023-09-07T22:44:15;98685.00;;;13.70
20848;BMP180;10584;50.854;12.902;2023-09-07T22:49:36;98683.00;;;13.60
20848;BMP180;10584;50.854;12.902;2023-09-07T22:55:01;98684.00;;;13.50
20848;BMP180;10584;50.854;12.902;2023-09-07T23:00:23;98682.00;;;13.40
20848;BMP180;10584;50.854;12.902;2023-09-07T23:05:45;98687.00;;;13.30
20848;BMP180;10584;50.854;12.902;2023-09-07T23:11:07;98675.00;;;13.20
20848;BMP180;10584;50.854;12.902;2023-09-07T23:16:29;98682.00;;;13.10
20848;BMP180;10584;50.854;12.902;2023-09-07T23:21:50;98687.00;;;13.10
20848;BMP180;10584;50.854;12.902;2023-09-07T23:27:12;98682.00;;;13.00
20848;BMP180;10584;50.854;12.902;2023-09-07T23:32:39;98670.00;;;12.90
20848;BMP180;10584;50.854;12.902;2023-09-07T23:38:01;98680.00;;;12.90
20848;BMP180;10584;50.854;12.902;2023-09-07T23:43:22;98684.00;;;12.80
20848;BMP180;10584;50.854;12.902;2023-09-07T23:48:44;98682.00;;;12.70
20848;BMP180;10584;50.854;12.902;2023-09-07T23:54:06;98688.00;;;12.70
20848;BMP180;10584;50.854;12.902;2023-09-07T23:59:27;98680.00;;;12.60
